sensor_id;sensor_type;location;lat;lon;timestamp;temperature;humidity
66032;DHT22;52799;45.654;13.810;2022-08-19T00:01:09;23.40;76.50
66032;DHT22;52799;45.654;13.810;2022-08-19T00:03:35;23.60;74.80
66032;DHT22;52799;45.654;13.810;2022-08-19T00:06:01;23.80;74.20
66032;DHT22;52799;45.654;13.810;2022-08-19T00:08:26;23.90;73.30
66032;DHT22;52799;45.654;13.810;2022-08-19T00:10:52;24.00;73.40
66032;DHT22;52799;45.654;13.810;2022-08-19T00:13:17;24.00;72.90
66032;DHT22;52799;45.654;13.810;2022-08-19T00:15:43;24.10;72.70
66032;DHT22;52799;45.654;13.810;2022-08-19T00:18:10;24.10;72.20
66032;DHT22;52799;45.654;13.810;2022-08-19T00:20:35;24.10;72.00
66032;DHT22;52799;45.654;13.810;2022-08-19T00:23:03;24.10;71.10
66032;DHT22;52799;45.654;13.810;2022-08-19T00:25:29;24.00;71.10
66032;DHT22;52799;45.654;13.810;2022-08-19T00:27:54;24.00;71.30
66032;DHT22;52799;45.654;13.810;2022-08-19T00:30:20;24.00;70.80
66032;DHT22;52799;45.654;13.810;2022-08-19T00:32:46;24.10;69.10
66032;DHT22;52799;45.654;13.810;2022-08-19T00:35:12;24.20;68.50
66032;DHT22;52799;45.654;13.810;2022-08-19T00:37:38;24.30;67.60
66032;DHT22;52799;45.654;13.810;2022-08-19T00:40:05;24.40;67.00
66032;DHT22;52799;45.654;13.810;2022-08-19T00:42:31;24.50;65.80
66032;DHT22;52799;45.654;13.810;2022-08-19T00:44:56;24.50;65.60
66032;DHT22;52799;45.654;13.810;2022-08-19T00:47:22;24.50;65.50
66032;DHT22;52799;45.654;13.810;2022-08-19T00:49:48;24.60;65.20
66032;DHT22;52799;45.654;13.810;2022-08-19T00:52:18;24.70;63.70
66032;DHT22;52799;45.654;13.810;2022-08-19T00:54:45;24.80;62.70
66032;DHT22;52799;45.654;13.810;2022-08-19T00:57:13;24.90;63.00
66032;DHT22;52799;45.654;13.810;2022-08-19T00:59:41;24.90;63.20
66032;DHT22;52799;45.654;13.810;2022-08-19T01:02:07;24.90;65.90
66032;DHT22;52799;45.654;13.810;2022-08-19T01:04:33;25.00;65.60
66032;DHT22;52799;45.654;13.810;2022-08-19T01:06:58;24.90;65.40
66032;DHT22;52799;45.654;13.810;2022-08-19T01:09:24;24.80;66.50
66032;DHT22;52799;45.654;13.810;2022-08-19T01:11:50;24.80;67.30
66032;DHT22;52799;45.654;13.810;2022-08-19T01:14:16;24.80;69.70
66032;DHT22;52799;45.654;13.810;2022-08-19T01:16:42;24.70;71.90
66032;DHT22;52799;45.654;13.810;2022-08-19T01:19:15;24.60;77.10
66032;DHT22;52799;45.654;13.810;2022-08-19T01:21:45;24.50;77.80
66032;DHT22;52799;45.654;13.810;2022-08-19T01:24:14;24.30;79.40
66032;DHT22;52799;45.654;13.810;2022-08-19T01:26:41;24.30;78.80
66032;DHT22;52799;45.654;13.810;2022-08-19T01:29:08;24.20;81.60
66032;DHT22;52799;45.654;13.810;2022-08-19T01:31:34;24.00;83.10
66032;DHT22;52799;45.654;13.810;2022-08-19T01:34:01;23.80;84.50
66032;DHT22;52799;45.654;13.810;2022-08-19T01:38:55;22.60;91.40
66032;DHT22;52799;45.654;13.810;2022-08-19T01:41:21;22.20;91.20
66032;DHT22;52799;45.654;13.810;2022-08-19T01:43:49;22.00;93.20
66032;DHT22;52799;45.654;13.810;2022-08-19T01:46:15;21.90;93.40
66032;DHT22;52799;45.654;13.810;2022-08-19T01:48:41;21.80;94.30
66032;DHT22;52799;45.654;13.810;2022-08-19T01:51:07;21.90;94.20
66032;DHT22;52799;45.654;13.810;2022-08-19T01:53:34;22.20;93.90
66032;DHT22;52799;45.654;13.810;2022-08-19T01:56:00;22.50;93.00
66032;DHT22;52799;45.654;13.810;2022-08-19T01:58:29;22.60;91.80
66032;DHT22;52799;45.654;13.810;2022-08-19T02:00:56;22.70;90.50
66032;DHT22;52799;45.654;13.810;2022-08-19T02:03:22;22.60;90.30
66032;DHT22;52799;45.654;13.810;2022-08-19T02:05:52;22.20;91.50
66032;DHT22;52799;45.654;13.810;2022-08-19T02:08:18;22.10;90.70
66032;DHT22;52799;45.654;13.810;2022-08-19T02:10:44;22.20;90.90
66032;DHT22;52799;45.654;13.810;2022-08-19T02:13:10;22.40;90.30
66032;DHT22;52799;45.654;13.810;2022-08-19T02:15:36;22.50;90.60
66032;DHT22;52799;45.654;13.810;2022-08-19T02:18:02;22.60;90.00
66032;DHT22;52799;45.654;13.810;2022-08-19T02:20:28;22.80;89.70
66032;DHT22;52799;45.654;13.810;2022-08-19T02:22:53;22.80;90.00
66032;DHT22;52799;45.654;13.810;2022-08-19T02:25:19;22.70;90.80
66032;DHT22;52799;45.654;13.810;2022-08-19T02:27:44;22.70;90.80
66032;DHT22;52799;45.654;13.810;2022-08-19T02:30:12;22.20;90.60
66032;DHT22;52799;45.654;13.810;2022-08-19T02:32:38;22.00;89.40
66032;DHT22;52799;45.654;13.810;2022-08-19T02:35:04;21.70;90.30
66032;DHT22;52799;45.654;13.810;2022-08-19T02:37:30;21.50;90.80
66032;DHT22;52799;45.654;13.810;2022-08-19T02:40:14;21.40;91.00
66032;DHT22;52799;45.654;13.810;2022-08-19T02:42:40;21.60;91.30
66032;DHT22;52799;45.654;13.810;2022-08-19T02:45:06;21.70;90.40
66032;DHT22;52799;45.654;13.810;2022-08-19T02:47:33;21.60;90.60
66032;DHT22;52799;45.654;13.810;2022-08-19T02:50:00;21.70;88.70
66032;DHT22;52799;45.654;13.810;2022-08-19T02:52:26;21.70;88.60
66032;DHT22;52799;45.654;13.810;2022-08-19T02:54:53;21.70;89.60
66032;DHT22;52799;45.654;13.810;2022-08-19T02:57:20;21.60;90.80
66032;DHT22;52799;45.654;13.810;2022-08-19T02:59:46;21.60;90.80
66032;DHT22;52799;45.654;13.810;2022-08-19T03:02:11;21.70;90.80
66032;DHT22;52799;45.654;13.810;2022-08-19T03:04:37;21.50;90.60
66032;DHT22;52799;45.654;13.810;2022-08-19T03:07:02;21.40;91.00
66032;DHT22;52799;45.654;13.810;2022-08-19T03:09:28;21.30;91.00
66032;DHT22;52799;45.654;13.810;2022-08-19T03:11:55;21.40;90.20
66032;DHT22;52799;45.654;13.810;2022-08-19T03:14:20;21.60;90.10
66032;DHT22;52799;45.654;13.810;2022-08-19T03:16:47;21.60;89.10
66032;DHT22;52799;45.654;13.810;2022-08-19T03:19:14;21.70;88.40
66032;DHT22;52799;45.654;13.810;2022-08-19T03:21:42;21.60;89.00
66032;DHT22;52799;45.654;13.810;2022-08-19T03:24:09;21.70;88.30
66032;DHT22;52799;45.654;13.810;2022-08-19T03:26:39;21.60;87.60
66032;DHT22;52799;45.654;13.810;2022-08-19T03:29:05;21.60;87.10
66032;DHT22;52799;45.654;13.810;2022-08-19T03:31:31;21.60;87.30
66032;DHT22;52799;45.654;13.810;2022-08-19T03:33:57;21.70;86.80
66032;DHT22;52799;45.654;13.810;2022-08-19T03:36:24;21.80;86.50
66032;DHT22;52799;45.654;13.810;2022-08-19T03:38:51;21.70;87.00
66032;DHT22;52799;45.654;13.810;2022-08-19T03:41:18;21.90;86.30
66032;DHT22;52799;45.654;13.810;2022-08-19T03:43:44;21.90;86.00
66032;DHT22;52799;45.654;13.810;2022-08-19T03:46:14;21.80;85.80
66032;DHT22;52799;45.654;13.810;2022-08-19T03:48:41;21.50;86.50
66032;DHT22;52799;45.654;13.810;2022-08-19T03:51:14;21.50;86.60
66032;DHT22;52799;45.654;13.810;2022-08-19T03:53:40;21.50;86.80
66032;DHT22;52799;45.654;13.810;2022-08-19T03:56:06;21.60;86.60
66032;DHT22;52799;45.654;13.810;2022-08-19T03:58:33;21.70;87.00
66032;DHT22;52799;45.654;13.810;2022-08-19T04:00:59;21.70;86.40
66032;DHT22;52799;45.654;13.810;2022-08-19T04:03:25;21.80;86.90
66032;DHT22;52799;45.654;13.810;2022-08-19T04:05:52;21.80;86.30
66032;DHT22;52799;45.654;13.810;2022-08-19T04:08:19;21.90;84.20
66032;DHT22;52799;45.654;13.810;2022-08-19T04:10:46;22.10;81.60
66032;DHT22;52799;45.654;13.810;2022-08-19T04:13:11;22.10;79.50
66032;DHT22;52799;45.654;13.810;2022-08-19T04:15:41;21.90;78.70
66032;DHT22;52799;45.654;13.810;2022-08-19T04:18:07;21.90;80.60
66032;DHT22;52799;45.654;13.810;2022-08-19T04:20:43;21.80;87.60
66032;DHT22;52799;45.654;13.810;2022-08-19T04:23:09;21.80;85.90
66032;DHT22;52799;45.654;13.810;2022-08-19T04:25:36;21.90;86.90
66032;DHT22;52799;45.654;13.810;2022-08-19T04:28:02;21.80;87.60
66032;DHT22;52799;45.654;13.810;2022-08-19T04:30:28;21.70;87.30
66032;DHT22;52799;45.654;13.810;2022-08-19T04:32:53;21.70;85.50
66032;DHT22;52799;45.654;13.810;2022-08-19T04:35:19;21.80;83.40
66032;DHT22;52799;45.654;13.810;2022-08-19T04:37:45;21.80;84.50
66032;DHT22;52799;45.654;13.810;2022-08-19T04:40:10;21.80;85.00
66032;DHT22;52799;45.654;13.810;2022-08-19T04:42:54;21.60;85.00
66032;DHT22;52799;45.654;13.810;2022-08-19T04:45:20;21.50;81.90
66032;DHT22;52799;45.654;13.810;2022-08-19T04:47:46;21.50;82.40
66032;DHT22;52799;45.654;13.810;2022-08-19T04:50:11;21.40;82.80
66032;DHT22;52799;45.654;13.810;2022-08-19T04:52:38;21.10;81.70
66032;DHT22;52799;45.654;13.810;2022-08-19T04:55:07;21.00;81.00
66032;DHT22;52799;45.654;13.810;2022-08-19T04:57:33;21.20;81.30
66032;DHT22;52799;45.654;13.810;2022-08-19T04:59:58;21.20;82.00
66032;DHT22;52799;45.654;13.810;2022-08-19T05:02:24;21.10;80.30
66032;DHT22;52799;45.654;13.810;2022-08-19T05:04:57;21.10;81.80
66032;DHT22;52799;45.654;13.810;2022-08-19T05:07:25;21.00;81.60
66032;DHT22;52799;45.654;13.810;2022-08-19T05:09:51;21.00;83.80
66032;DHT22;52799;45.654;13.810;2022-08-19T05:12:16;20.80;84.40
66032;DHT22;52799;45.654;13.810;2022-08-19T05:14:42;20.90;83.30
66032;DHT22;52799;45.654;13.810;2022-08-19T05:17:08;21.00;82.80
66032;DHT22;52799;45.654;13.810;2022-08-19T05:19:34;20.90;81.20
66032;DHT22;52799;45.654;13.810;2022-08-19T05:22:18;21.00;82.20
66032;DHT22;52799;45.654;13.810;2022-08-19T05:25:07;20.90;82.20
66032;DHT22;52799;45.654;13.810;2022-08-19T05:27:33;21.00;82.00
66032;DHT22;52799;45.654;13.810;2022-08-19T05:29:58;21.00;82.20
66032;DHT22;52799;45.654;13.810;2022-08-19T05:32:24;21.00;82.00
66032;DHT22;52799;45.654;13.810;2022-08-19T05:34:50;21.10;80.70
66032;DHT22;52799;45.654;13.810;2022-08-19T05:37:15;21.00;81.60
66032;DHT22;52799;45.654;13.810;2022-08-19T05:39:42;21.10;82.10
66032;DHT22;52799;45.654;13.810;2022-08-19T05:42:08;21.10;80.00
66032;DHT22;52799;45.654;13.810;2022-08-19T05:44:35;21.20;80.10
66032;DHT22;52799;45.654;13.810;2022-08-19T05:47:02;21.40;80.20
66032;DHT22;52799;45.654;13.810;2022-08-19T05:49:29;21.50;78.60
66032;DHT22;52799;45.654;13.810;2022-08-19T05:51:55;21.50;79.00
66032;DHT22;52799;45.654;13.810;2022-08-19T05:54:22;21.50;76.50
66032;DHT22;52799;45.654;13.810;2022-08-19T05:56:51;21.50;77.90
66032;DHT22;52799;45.654;13.810;2022-08-19T05:59:17;21.60;78.40
66032;DHT22;52799;45.654;13.810;2022-08-19T06:01:44;21.70;77.60
66032;DHT22;52799;45.654;13.810;2022-08-19T06:04:10;21.70;78.10
66032;DHT22;52799;45.654;13.810;2022-08-19T06:06:36;21.60;76.00
66032;DHT22;52799;45.654;13.810;2022-08-19T06:09:03;21.60;78.10
66032;DHT22;52799;45.654;13.810;2022-08-19T06:13:59;22.00;76.80
66032;DHT22;52799;45.654;13.810;2022-08-19T06:16:26;21.90;76.80
66032;DHT22;52799;45.654;13.810;2022-08-19T06:18:52;21.90;76.80
66032;DHT22;52799;45.654;13.810;2022-08-19T06:21:19;22.00;77.20
66032;DHT22;52799;45.654;13.810;2022-08-19T06:23:45;22.00;77.60
66032;DHT22;52799;45.654;13.810;2022-08-19T06:26:12;22.00;76.80
66032;DHT22;52799;45.654;13.810;2022-08-19T06:28:37;22.00;75.30
66032;DHT22;52799;45.654;13.810;2022-08-19T06:31:08;22.00;76.30
66032;DHT22;52799;45.654;13.810;2022-08-19T06:33:34;22.10;76.60
66032;DHT22;52799;45.654;13.810;2022-08-19T06:35:59;22.30;75.20
66032;DHT22;52799;45.654;13.810;2022-08-19T06:38:25;22.30;75.30
66032;DHT22;52799;45.654;13.810;2022-08-19T06:40:50;22.40;74.70
66032;DHT22;52799;45.654;13.810;2022-08-19T06:43:16;22.40;74.50
66032;DHT22;52799;45.654;13.810;2022-08-19T06:45:47;22.50;74.20
66032;DHT22;52799;45.654;13.810;2022-08-19T06:48:19;22.50;72.90
66032;DHT22;52799;45.654;13.810;2022-08-19T06:50:45;22.60;73.00
66032;DHT22;52799;45.654;13.810;2022-08-19T06:53:10;22.70;72.40
66032;DHT22;52799;45.654;13.810;2022-08-19T06:55:36;22.70;72.70
66032;DHT22;52799;45.654;13.810;2022-08-19T06:58:03;22.80;72.50
66032;DHT22;52799;45.654;13.810;2022-08-19T07:00:29;22.90;71.30
66032;DHT22;52799;45.654;13.810;2022-08-19T07:02:54;23.00;71.50
66032;DHT22;52799;45.654;13.810;2022-08-19T07:05:22;23.10;71.60
66032;DHT22;52799;45.654;13.810;2022-08-19T07:07:47;23.10;73.00
66032;DHT22;52799;45.654;13.810;2022-08-19T07:10:13;23.20;69.60
66032;DHT22;52799;45.654;13.810;2022-08-19T07:12:39;23.30;70.00
66032;DHT22;52799;45.654;13.810;2022-08-19T07:15:06;23.30;69.50
66032;DHT22;52799;45.654;13.810;2022-08-19T07:17:33;23.30;69.60
66032;DHT22;52799;45.654;13.810;2022-08-19T07:20:04;23.30;69.10
66032;DHT22;52799;45.654;13.810;2022-08-19T07:22:30;23.20;69.30
66032;DHT22;52799;45.654;13.810;2022-08-19T07:24:56;23.30;69.10
66032;DHT22;52799;45.654;13.810;2022-08-19T07:27:21;23.20;68.40
66032;DHT22;52799;45.654;13.810;2022-08-19T07:29:47;23.20;69.00
66032;DHT22;52799;45.654;13.810;2022-08-19T07:32:12;23.20;68.20
66032;DHT22;52799;45.654;13.810;2022-08-19T07:34:38;23.30;68.20
66032;DHT22;52799;45.654;13.810;2022-08-19T07:37:05;23.30;68.00
66032;DHT22;52799;45.654;13.810;2022-08-19T07:39:31;23.50;68.30
66032;DHT22;52799;45.654;13.810;2022-08-19T07:41:58;23.70;67.20
66032;DHT22;52799;45.654;13.810;2022-08-19T07:44:24;23.90;67.10
66032;DHT22;52799;45.654;13.810;2022-08-19T07:46:52;24.10;67.20
66032;DHT22;52799;45.654;13.810;2022-08-19T07:49:18;24.20;66.60
66032;DHT22;52799;45.654;13.810;2022-08-19T07:51:55;24.20;66.60
66032;DHT22;52799;45.654;13.810;2022-08-19T07:54:22;24.30;66.50
66032;DHT22;52799;45.654;13.810;2022-08-19T07:56:48;24.40;66.00
66032;DHT22;52799;45.654;13.810;2022-08-19T07:59:16;24.40;66.50
66032;DHT22;52799;45.654;13.810;2022-08-19T08:01:42;24.40;66.10
66032;DHT22;52799;45.654;13.810;2022-08-19T08:04:08;24.40;65.40
66032;DHT22;52799;45.654;13.810;2022-08-19T08:06:52;24.40;64.90
66032;DHT22;52799;45.654;13.810;2022-08-19T08:09:37;24.40;63.90
66032;DHT22;52799;45.654;13.810;2022-08-19T08:12:05;24.50;63.30
66032;DHT22;52799;45.654;13.810;2022-08-19T08:16:58;24.60;63.60
66032;DHT22;52799;45.654;13.810;2022-08-19T08:19:24;24.70;63.20
66032;DHT22;52799;45.654;13.810;2022-08-19T08:21:50;24.80;63.20
66032;DHT22;52799;45.654;13.810;2022-08-19T08:24:16;24.80;63.40
66032;DHT22;52799;45.654;13.810;2022-08-19T08:26:41;25.00;61.60
66032;DHT22;52799;45.654;13.810;2022-08-19T08:29:11;25.20;63.50
66032;DHT22;52799;45.654;13.810;2022-08-19T08:31:39;25.30;63.30
66032;DHT22;52799;45.654;13.810;2022-08-19T08:34:05;25.50;62.50
66032;DHT22;52799;45.654;13.810;2022-08-19T08:36:31;25.60;60.80
66032;DHT22;52799;45.654;13.810;2022-08-19T08:38:59;25.90;60.20
66032;DHT22;52799;45.654;13.810;2022-08-19T08:43:51;26.50;59.50
66032;DHT22;52799;45.654;13.810;2022-08-19T08:51:18;26.80;59.50
66032;DHT22;52799;45.654;13.810;2022-08-19T08:53:44;26.80;59.80
66032;DHT22;52799;45.654;13.810;2022-08-19T08:56:12;26.80;58.70
66032;DHT22;52799;45.654;13.810;2022-08-19T09:01:22;26.90;59.00
66032;DHT22;52799;45.654;13.810;2022-08-19T09:03:48;26.90;59.80
66032;DHT22;52799;45.654;13.810;2022-08-19T09:06:17;26.80;60.00
66032;DHT22;52799;45.654;13.810;2022-08-19T09:11:10;26.60;59.30
66032;DHT22;52799;45.654;13.810;2022-08-19T09:16:23;26.40;60.20
66032;DHT22;52799;45.654;13.810;2022-08-19T09:18:54;26.40;59.70
66032;DHT22;52799;45.654;13.810;2022-08-19T09:21:20;26.40;59.30
66032;DHT22;52799;45.654;13.810;2022-08-19T09:23:48;26.40;58.70
66032;DHT22;52799;45.654;13.810;2022-08-19T09:26:14;26.40;58.10
66032;DHT22;52799;45.654;13.810;2022-08-19T09:28:41;26.50;57.60
66032;DHT22;52799;45.654;13.810;2022-08-19T09:31:09;26.60;57.70
66032;DHT22;52799;45.654;13.810;2022-08-19T09:33:35;26.60;58.00
66032;DHT22;52799;45.654;13.810;2022-08-19T09:36:05;26.60;58.00
66032;DHT22;52799;45.654;13.810;2022-08-19T09:38:31;26.60;58.10
66032;DHT22;52799;45.654;13.810;2022-08-19T09:41:01;26.70;58.90
66032;DHT22;52799;45.654;13.810;2022-08-19T09:43:27;26.70;58.00
66032;DHT22;52799;45.654;13.810;2022-08-19T09:45:53;26.80;58.10
66032;DHT22;52799;45.654;13.810;2022-08-19T09:48:18;26.80;58.10
66032;DHT22;52799;45.654;13.810;2022-08-19T09:50:45;26.90;58.50
66032;DHT22;52799;45.654;13.810;2022-08-19T09:53:11;26.90;58.60
66032;DHT22;52799;45.654;13.810;2022-08-19T09:55:41;27.00;58.70
66032;DHT22;52799;45.654;13.810;2022-08-19T09:58:06;27.10;59.30
66032;DHT22;52799;45.654;13.810;2022-08-19T10:00:32;27.20;59.00
66032;DHT22;52799;45.654;13.810;2022-08-19T10:02:57;27.30;59.60
66032;DHT22;52799;45.654;13.810;2022-08-19T10:05:23;27.30;59.40
66032;DHT22;52799;45.654;13.810;2022-08-19T10:08:07;27.50;59.20
66032;DHT22;52799;45.654;13.810;2022-08-19T10:10:35;27.50;59.30
66032;DHT22;52799;45.654;13.810;2022-08-19T10:13:00;27.50;59.20
66032;DHT22;52799;45.654;13.810;2022-08-19T10:15:26;27.40;59.50
66032;DHT22;52799;45.654;13.810;2022-08-19T10:17:51;27.40;59.90
66032;DHT22;52799;45.654;13.810;2022-08-19T10:20:17;27.30;59.90
66032;DHT22;52799;45.654;13.810;2022-08-19T10:22:43;27.20;60.50
66032;DHT22;52799;45.654;13.810;2022-08-19T10:25:08;27.20;60.30
66032;DHT22;52799;45.654;13.810;2022-08-19T10:27:34;27.10;60.80
66032;DHT22;52799;45.654;13.810;2022-08-19T10:30:00;27.10;61.80
66032;DHT22;52799;45.654;13.810;2022-08-19T10:32:26;27.00;62.10
66032;DHT22;52799;45.654;13.810;2022-08-19T10:34:52;27.00;63.70
66032;DHT22;52799;45.654;13.810;2022-08-19T10:37:19;26.90;65.60
66032;DHT22;52799;45.654;13.810;2022-08-19T10:39:45;26.70;69.20
66032;DHT22;52799;45.654;13.810;2022-08-19T10:42:13;26.40;74.30
66032;DHT22;52799;45.654;13.810;2022-08-19T10:44:39;26.20;77.20
66032;DHT22;52799;45.654;13.810;2022-08-19T10:47:04;25.90;78.50
66032;DHT22;52799;45.654;13.810;2022-08-19T10:49:30;25.70;79.70
66032;DHT22;52799;45.654;13.810;2022-08-19T10:51:57;25.70;80.90
66032;DHT22;52799;45.654;13.810;2022-08-19T10:54:41;25.40;82.70
66032;DHT22;52799;45.654;13.810;2022-08-19T10:57:25;25.20;80.90
66032;DHT22;52799;45.654;13.810;2022-08-19T10:59:55;24.60;80.50
66032;DHT22;52799;45.654;13.810;2022-08-19T11:02:21;24.40;83.30
66032;DHT22;52799;45.654;13.810;2022-08-19T11:04:47;24.50;79.30
66032;DHT22;52799;45.654;13.810;2022-08-19T11:07:15;24.50;81.90
66032;DHT22;52799;45.654;13.810;2022-08-19T11:09:41;24.20;82.00
66032;DHT22;52799;45.654;13.810;2022-08-19T11:12:07;24.70;82.80
66032;DHT22;52799;45.654;13.810;2022-08-19T11:14:34;25.00;82.10
66032;DHT22;52799;45.654;13.810;2022-08-19T11:16:59;25.20;79.50
66032;DHT22;52799;45.654;13.810;2022-08-19T11:19:25;25.50;79.00
66032;DHT22;52799;45.654;13.810;2022-08-19T11:21:51;25.60;73.00
66032;DHT22;52799;45.654;13.810;2022-08-19T11:24:20;25.90;74.40
66032;DHT22;52799;45.654;13.810;2022-08-19T11:26:47;26.10;75.80
66032;DHT22;52799;45.654;13.810;2022-08-19T11:29:16;26.40;74.90
66032;DHT22;52799;45.654;13.810;2022-08-19T11:31:44;26.40;72.20
66032;DHT22;52799;45.654;13.810;2022-08-19T11:34:11;26.30;72.40
66032;DHT22;52799;45.654;13.810;2022-08-19T11:36:38;26.20;73.10
66032;DHT22;52799;45.654;13.810;2022-08-19T11:39:04;26.20;72.70
66032;DHT22;52799;45.654;13.810;2022-08-19T11:41:30;26.40;73.50
66032;DHT22;52799;45.654;13.810;2022-08-19T11:43:56;26.50;73.00
66032;DHT22;52799;45.654;13.810;2022-08-19T11:46:22;26.60;72.60
66032;DHT22;52799;45.654;13.810;2022-08-19T11:48:49;26.70;71.00
66032;DHT22;52799;45.654;13.810;2022-08-19T11:51:17;26.70;71.50
66032;DHT22;52799;45.654;13.810;2022-08-19T11:53:44;26.70;72.20
66032;DHT22;52799;45.654;13.810;2022-08-19T11:56:09;26.70;72.10
66032;DHT22;52799;45.654;13.810;2022-08-19T11:58:35;26.80;69.20
66032;DHT22;52799;45.654;13.810;2022-08-19T12:01:01;26.70;70.00
66032;DHT22;52799;45.654;13.810;2022-08-19T12:03:26;26.60;68.50
66032;DHT22;52799;45.654;13.810;2022-08-19T12:05:53;26.60;69.30
66032;DHT22;52799;45.654;13.810;2022-08-19T12:08:18;26.60;68.30
66032;DHT22;52799;45.654;13.810;2022-08-19T12:10:44;26.70;69.20
66032;DHT22;52799;45.654;13.810;2022-08-19T12:13:11;26.70;68.20
66032;DHT22;52799;45.654;13.810;2022-08-19T12:15:38;26.90;66.50
66032;DHT22;52799;45.654;13.810;2022-08-19T12:18:06;27.00;66.90
66032;DHT22;52799;45.654;13.810;2022-08-19T12:20:33;26.90;66.20
66032;DHT22;52799;45.654;13.810;2022-08-19T12:22:59;27.00;66.70
66032;DHT22;52799;45.654;13.810;2022-08-19T12:25:24;27.00;65.70
66032;DHT22;52799;45.654;13.810;2022-08-19T12:27:50;26.90;66.00
66032;DHT22;52799;45.654;13.810;2022-08-19T12:30:16;27.00;66.40
66032;DHT22;52799;45.654;13.810;2022-08-19T12:32:41;27.30;66.60
66032;DHT22;52799;45.654;13.810;2022-08-19T12:35:07;27.40;65.50
66032;DHT22;52799;45.654;13.810;2022-08-19T12:37:34;27.30;64.50
66032;DHT22;52799;45.654;13.810;2022-08-19T12:40:00;27.30;65.70
66032;DHT22;52799;45.654;13.810;2022-08-19T12:42:26;27.50;66.40
66032;DHT22;52799;45.654;13.810;2022-08-19T12:44:51;27.60;67.30
66032;DHT22;52799;45.654;13.810;2022-08-19T12:47:17;27.60;65.00
66032;DHT22;52799;45.654;13.810;2022-08-19T12:49:43;27.70;63.80
66032;DHT22;52799;45.654;13.810;2022-08-19T12:52:10;27.70;63.80
66032;DHT22;52799;45.654;13.810;2022-08-19T12:54:36;27.70;64.30
66032;DHT22;52799;45.654;13.810;2022-08-19T12:57:05;27.60;64.60
66032;DHT22;52799;45.654;13.810;2022-08-19T12:59:33;27.60;65.00
66032;DHT22;52799;45.654;13.810;2022-08-19T13:01:59;27.60;64.70
66032;DHT22;52799;45.654;13.810;2022-08-19T13:04:25;27.60;64.40
66032;DHT22;52799;45.654;13.810;2022-08-19T13:06:51;27.50;63.90
66032;DHT22;52799;45.654;13.810;2022-08-19T13:09:16;27.60;64.60
66032;DHT22;52799;45.654;13.810;2022-08-19T13:11:42;27.60;65.70
66032;DHT22;52799;45.654;13.810;2022-08-19T13:14:08;27.50;64.80
66032;DHT22;52799;45.654;13.810;2022-08-19T13:16:34;27.50;64.40
66032;DHT22;52799;45.654;13.810;2022-08-19T13:19:01;27.60;64.50
66032;DHT22;52799;45.654;13.810;2022-08-19T13:21:28;27.60;63.70
66032;DHT22;52799;45.654;13.810;2022-08-19T13:23:55;27.60;63.80
66032;DHT22;52799;45.654;13.810;2022-08-19T13:26:20;27.60;62.70
66032;DHT22;52799;45.654;13.810;2022-08-19T13:28:46;27.50;63.50
66032;DHT22;52799;45.654;13.810;2022-08-19T13:31:33;27.60;64.30
66032;DHT22;52799;45.654;13.810;2022-08-19T13:34:18;27.60;64.10
66032;DHT22;52799;45.654;13.810;2022-08-19T13:36:45;27.60;65.10
66032;DHT22;52799;45.654;13.810;2022-08-19T13:39:10;27.60;64.10
66032;DHT22;52799;45.654;13.810;2022-08-19T13:41:37;27.60;63.00
66032;DHT22;52799;45.654;13.810;2022-08-19T13:44:03;27.70;63.00
66032;DHT22;52799;45.654;13.810;2022-08-19T13:46:29;27.70;62.90
66032;DHT22;52799;45.654;13.810;2022-08-19T13:48:55;27.70;62.60
66032;DHT22;52799;45.654;13.810;2022-08-19T13:51:21;27.80;63.10
66032;DHT22;52799;45.654;13.810;2022-08-19T13:53:47;27.80;62.40
66032;DHT22;52799;45.654;13.810;2022-08-19T13:56:14;27.80;61.10
66032;DHT22;52799;45.654;13.810;2022-08-19T13:58:40;27.70;62.70
66032;DHT22;52799;45.654;13.810;2022-08-19T14:01:06;27.80;61.90
66032;DHT22;52799;45.654;13.810;2022-08-19T14:03:32;27.70;62.20
66032;DHT22;52799;45.654;13.810;2022-08-19T14:05:58;27.70;62.10
66032;DHT22;52799;45.654;13.810;2022-08-19T14:08:24;27.80;61.40
66032;DHT22;52799;45.654;13.810;2022-08-19T14:10:50;27.80;61.60
66032;DHT22;52799;45.654;13.810;2022-08-19T14:13:16;27.80;62.70
66032;DHT22;52799;45.654;13.810;2022-08-19T14:15:42;27.70;62.80
66032;DHT22;52799;45.654;13.810;2022-08-19T14:18:08;27.70;63.80
66032;DHT22;52799;45.654;13.810;2022-08-19T14:20:34;27.70;63.90
66032;DHT22;52799;45.654;13.810;2022-08-19T14:23:00;27.60;65.40
66032;DHT22;52799;45.654;13.810;2022-08-19T14:25:26;27.60;65.50
66032;DHT22;52799;45.654;13.810;2022-08-19T14:27:52;27.60;65.50
66032;DHT22;52799;45.654;13.810;2022-08-19T14:30:22;27.60;65.80
66032;DHT22;52799;45.654;13.810;2022-08-19T14:32:48;27.60;65.60
66032;DHT22;52799;45.654;13.810;2022-08-19T14:35:14;27.60;66.20
66032;DHT22;52799;45.654;13.810;2022-08-19T14:37:43;27.50;67.00
66032;DHT22;52799;45.654;13.810;2022-08-19T14:40:09;27.50;68.40
66032;DHT22;52799;45.654;13.810;2022-08-19T14:42:35;27.50;68.10
66032;DHT22;52799;45.654;13.810;2022-08-19T14:45:01;27.40;68.80
66032;DHT22;52799;45.654;13.810;2022-08-19T14:47:26;27.40;68.90
66032;DHT22;52799;45.654;13.810;2022-08-19T14:49:52;27.40;69.80
66032;DHT22;52799;45.654;13.810;2022-08-19T14:52:18;27.30;69.90
66032;DHT22;52799;45.654;13.810;2022-08-19T14:54:43;27.30;69.60
66032;DHT22;52799;45.654;13.810;2022-08-19T14:57:11;27.30;69.40
66032;DHT22;52799;45.654;13.810;2022-08-19T14:59:37;27.30;69.70
66032;DHT22;52799;45.654;13.810;2022-08-19T15:02:03;27.20;70.80
66032;DHT22;52799;45.654;13.810;2022-08-19T15:04:29;27.20;70.90
66032;DHT22;52799;45.654;13.810;2022-08-19T15:06:54;27.20;71.10
66032;DHT22;52799;45.654;13.810;2022-08-19T15:09:20;27.10;71.70
66032;DHT22;52799;45.654;13.810;2022-08-19T15:11:45;27.20;71.90
66032;DHT22;52799;45.654;13.810;2022-08-19T15:14:11;27.10;71.20
66032;DHT22;52799;45.654;13.810;2022-08-19T15:16:36;27.10;70.80
66032;DHT22;52799;45.654;13.810;2022-08-19T15:19:06;27.10;71.00
66032;DHT22;52799;45.654;13.810;2022-08-19T15:21:32;27.10;71.80
66032;DHT22;52799;45.654;13.810;2022-08-19T15:23:58;27.10;73.10
66032;DHT22;52799;45.654;13.810;2022-08-19T15:26:24;27.10;73.10
66032;DHT22;52799;45.654;13.810;2022-08-19T15:28:51;27.10;73.10
66032;DHT22;52799;45.654;13.810;2022-08-19T15:31:18;27.10;73.50
66032;DHT22;52799;45.654;13.810;2022-08-19T15:33:43;27.00;73.70
66032;DHT22;52799;45.654;13.810;2022-08-19T15:36:09;27.00;74.10